sensor_id;sensor_type;location;lat;lon;timestamp;pressure;altitude;pressure_sealevel;temperature;humidity
11198;BME280;5655;48.744;9.162;2022-12-29T00:02:13;95710.75;;;10.60;100.00
11198;BME280;5655;48.744;9.162;2022-12-29T00:04:39;95717.59;;;10.50;100.00
11198;BME280;5655;48.744;9.162;2022-12-29T00:07:05;95708.00;;;10.38;100.00
11198;BME280;5655;48.744;9.162;2022-12-29T00:09:31;95712.22;;;10.43;100.00
11198;BME280;5655;48.744;9.162;2022-12-29T00:11:57;95719.16;;;10.62;100.00
11198;BME280;5655;48.744;9.162;2022-12-29T00:14:23;95716.03;;;10.38;100.00
11198;BME280;5655;48.744;9.162;2022-12-29T00:17:07;95710.75;;;10.67;100.00
11198;BME280;5655;48.744;9.162;2022-12-29T00:19:32;95699.28;;;10.56;100.00
11198;BME280;5655;48.744;9.162;2022-12-29T00:22:16;95690.88;;;10.61;100.00
11198;BME280;5655;48.744;9.162;2022-12-29T00:25:00;95694.75;;;10.88;100.00
11198;BME280;5655;48.744;9.162;2022-12-29T00:27:44;95687.09;;;10.76;100.00
11198;BME280;5655;48.744;9.162;2022-12-29T00:30:29;95689.78;;;11.18;100.00
11198;BME280;5655;48.744;9.162;2022-12-29T00:33:18;95682.91;;;10.82;100.00
11198;BME280;5655;48.744;9.162;2022-12-29T00:36:21;95691.34;;;11.23;100.00
11198;BME280;5655;48.744;9.162;2022-12-29T00:38:53;95682.53;;;11.08;100.00
11198;BME280;5655;48.744;9.162;2022-12-29T00:41:38;95690.19;;;11.13;100.00
11198;BME280;5655;48.744;9.162;2022-12-29T00:44:22;95682.53;;;11.22;100.00
11198;BME280;5655;48.744;9.162;2022-12-29T00:46:47;95680.22;;;11.31;100.00
11198;BME280;5655;48.744;9.162;2022-12-29T00:49:13;95683.31;;;11.33;100.00
11198;BME280;5655;48.744;9.162;2022-12-29T00:52:08;95684.06;;;11.73;100.00
11198;BME280;5655;48.744;9.162;2022-12-29T00:54:36;95682.13;;;11.49;100.00
11198;BME280;5655;48.744;9.162;2022-12-29T00:57:03;95684.06;;;11.16;100.00
11198;BME280;5655;48.744;9.162;2022-12-29T00:59:29;95682.13;;;11.13;100.00
11198;BME280;5655;48.744;9.162;2022-12-29T01:01:55;95684.84;;;11.34;100.00
11198;BME280;5655;48.744;9.162;2022-12-29T01:04:22;95688.66;;;11.51;100.00
11198;BME280;5655;48.744;9.162;2022-12-29T01:06:48;95689.03;;;11.28;100.00
11198;BME280;5655;48.744;9.162;2022-12-29T01:09:14;95691.72;;;11.04;100.00
11198;BME280;5655;48.744;9.162;2022-12-29T01:11:58;95694.03;;;11.51;100.00
11198;BME280;5655;48.744;9.162;2022-12-29T01:14:24;95694.78;;;11.13;100.00
11198;BME280;5655;48.744;9.162;2022-12-29T01:16:50;95697.06;;;11.39;100.00
11198;BME280;5655;48.744;9.162;2022-12-29T01:19:17;95693.66;;;11.17;100.00
11198;BME280;5655;48.744;9.162;2022-12-29T01:21:42;95694.78;;;11.34;100.00
11198;BME280;5655;48.744;9.162;2022-12-29T01:24:08;95694.78;;;11.13;100.00
11198;BME280;5655;48.744;9.162;2022-12-29T01:26:34;95694.78;;;11.30;100.00
11198;BME280;5655;48.744;9.162;2022-12-29T01:28:59;95698.59;;;11.44;100.00
11198;BME280;5655;48.744;9.162;2022-12-29T01:31:24;95695.16;;;11.47;100.00
11198;BME280;5655;48.744;9.162;2022-12-29T01:33:50;95696.69;;;11.26;100.00
11198;BME280;5655;48.744;9.162;2022-12-29T01:36:16;95696.69;;;11.33;100.00
11198;BME280;5655;48.744;9.162;2022-12-29T01:38:42;95695.13;;;10.97;100.00
11198;BME280;5655;48.744;9.162;2022-12-29T01:41:10;95687.88;;;11.22;100.00
11198;BME280;5655;48.744;9.162;2022-12-29T01:43:52;95701.28;;;11.51;100.00
11198;BME280;5655;48.744;9.162;2022-12-29T01:48:55;95689.41;;;11.27;100.00
11198;BME280;5655;48.744;9.162;2022-12-29T01:51:25;95697.06;;;11.18;100.00
11198;BME280;5655;48.744;9.162;2022-12-29T01:53:52;95686.75;;;11.02;100.00
11198;BME280;5655;48.744;9.162;2022-12-29T01:56:20;95702.44;;;11.35;100.00
11198;BME280;5655;48.744;9.162;2022-12-29T01:58:48;95694.78;;;11.37;100.00
11198;BME280;5655;48.744;9.162;2022-12-29T02:01:18;95681.78;;;11.25;100.00
11198;BME280;5655;48.744;9.162;2022-12-29T02:03:44;95688.66;;;11.12;100.00
11198;BME280;5655;48.744;9.162;2022-12-29T02:06:27;95684.06;;;11.45;100.00
11198;BME280;5655;48.744;9.162;2022-12-29T02:08:55;95685.59;;;11.46;100.00
11198;BME280;5655;48.744;9.162;2022-12-29T02:11:23;95688.66;;;11.41;100.00
11198;BME280;5655;48.744;9.162;2022-12-29T02:13:48;95668.00;;;11.13;100.00
11198;BME280;5655;48.744;9.162;2022-12-29T02:16:29;95676.41;;;11.50;100.00
11198;BME280;5655;48.744;9.162;2022-12-29T02:30:40;95670.66;;;11.48;100.00
11198;BME280;5655;48.744;9.162;2022-12-29T02:36:51;95667.22;;;11.44;100.00
11198;BME280;5655;48.744;9.162;2022-12-29T02:39:35;95666.06;;;11.31;100.00
11198;BME280;5655;48.744;9.162;2022-12-29T02:42:29;95662.19;;;11.78;100.00
11198;BME280;5655;48.744;9.162;2022-12-29T02:45:05;95658.81;;;11.38;100.00
11198;BME280;5655;48.744;9.162;2022-12-29T02:47:36;95646.16;;;11.35;100.00
11198;BME280;5655;48.744;9.162;2022-12-29T02:52:44;95654.19;;;11.50;100.00
11198;BME280;5655;48.744;9.162;2022-12-29T02:55:11;95649.97;;;11.52;100.00
11198;BME280;5655;48.744;9.162;2022-12-29T02:57:37;95652.25;;;11.57;100.00
11198;BME280;5655;48.744;9.162;2022-12-29T03:00:09;95653.75;;;11.87;100.00
11198;BME280;5655;48.744;9.162;2022-12-29T03:02:54;95656.72;;;12.13;100.00
11198;BME280;5655;48.744;9.162;2022-12-29T03:05:54;95661.69;;;12.18;100.00
11198;BME280;5655;48.744;9.162;2022-12-29T03:08:48;95660.28;;;11.82;100.00
11198;BME280;5655;48.744;9.162;2022-12-29T03:11:12;95647.66;;;11.86;100.00
11198;BME280;5655;48.744;9.162;2022-12-29T03:14:25;95651.00;;;12.11;100.00
11198;BME280;5655;48.744;9.162;2022-12-29T03:17:41;95653.00;;;11.86;100.00
11198;BME280;5655;48.744;9.162;2022-12-29T03:20:17;95646.47;;;11.91;100.00
11198;BME280;5655;48.744;9.162;2022-12-29T03:22:44;95639.97;;;11.88;100.00
11198;BME280;5655;48.744;9.162;2022-12-29T03:27:49;95643.41;;;11.89;100.00
11198;BME280;5655;48.744;9.162;2022-12-29T03:30:16;95633.13;;;11.59;100.00
11198;BME280;5655;48.744;9.162;2022-12-29T03:32:47;95628.00;;;12.10;100.00
11198;BME280;5655;48.744;9.162;2022-12-29T03:35:17;95638.03;;;11.99;100.00
11198;BME280;5655;48.744;9.162;2022-12-29T03:37:54;95641.72;;;12.26;100.00
11198;BME280;5655;48.744;9.162;2022-12-29T03:40:23;95629.16;;;12.16;100.00
11198;BME280;5655;48.744;9.162;2022-12-29T03:42:50;95627.31;;;11.99;100.00
11198;BME280;5655;48.744;9.162;2022-12-29T03:45:15;95631.84;;;12.09;100.00
11198;BME280;5655;48.744;9.162;2022-12-29T03:47:41;95613.75;;;12.27;100.00
11198;BME280;5655;48.744;9.162;2022-12-29T03:50:06;95620.59;;;12.36;100.00
11198;BME280;5655;48.744;9.162;2022-12-29T03:52:33;95620.22;;;12.37;100.00
11198;BME280;5655;48.744;9.162;2022-12-29T03:54:59;95620.25;;;12.34;100.00
11198;BME280;5655;48.744;9.162;2022-12-29T03:57:24;95603.00;;;12.31;100.00
11198;BME280;5655;48.744;9.162;2022-12-29T03:59:49;95609.50;;;12.34;100.00
11198;BME280;5655;48.744;9.162;2022-12-29T04:02:15;95606.06;;;12.33;100.00
11198;BME280;5655;48.744;9.162;2022-12-29T04:04:40;95625.63;;;12.26;100.00
11198;BME280;5655;48.744;9.162;2022-12-29T04:07:05;95621.88;;;12.10;100.00
11198;BME280;5655;48.744;9.162;2022-12-29T04:09:30;95625.81;;;11.84;100.00
11198;BME280;5655;48.744;9.162;2022-12-29T04:11:56;95623.44;;;12.07;100.00
11198;BME280;5655;48.744;9.162;2022-12-29T04:14:21;95622.66;;;12.10;100.00
11198;BME280;5655;48.744;9.162;2022-12-29T04:16:46;95616.91;;;12.05;100.00
11198;BME280;5655;48.744;9.162;2022-12-29T04:19:12;95625.69;;;12.12;100.00
11198;BME280;5655;48.744;9.162;2022-12-29T04:21:37;95631.84;;;12.09;100.00
11198;BME280;5655;48.744;9.162;2022-12-29T04:24:03;95631.09;;;12.05;100.00
11198;BME280;5655;48.744;9.162;2022-12-29T04:26:31;95646.06;;;11.99;100.00
11198;BME280;5655;48.744;9.162;2022-12-29T04:28:56;95666.34;;;12.07;100.00
11198;BME280;5655;48.744;9.162;2022-12-29T04:31:22;95657.88;;;12.12;100.00
11198;BME280;5655;48.744;9.162;2022-12-29T04:33:47;95638.03;;;11.99;100.00
11198;BME280;5655;48.744;9.162;2022-12-29T04:36:12;95648.31;;;12.04;100.00
11198;BME280;5655;48.744;9.162;2022-12-29T04:38:37;95641.81;;;12.05;100.00
11198;BME280;5655;48.744;9.162;2022-12-29T04:41:04;95635.22;;;12.27;100.00
11198;BME280;5655;48.744;9.162;2022-12-29T04:43:29;95622.34;;;11.94;100.00
11198;BME280;5655;48.744;9.162;2022-12-29T04:45:54;95624.09;;;12.29;100.00
11198;BME280;5655;48.744;9.162;2022-12-29T04:48:20;95634.50;;;12.13;100.00
11198;BME280;5655;48.744;9.162;2022-12-29T04:50:47;95617.91;;;12.36;100.00
11198;BME280;5655;48.744;9.162;2022-12-29T04:53:13;95626.13;;;12.07;100.00
11198;BME280;5655;48.744;9.162;2022-12-29T04:55:38;95639.84;;;12.20;100.00
11198;BME280;5655;48.744;9.162;2022-12-29T04:58:04;95651.69;;;12.30;100.00
11198;BME280;5655;48.744;9.162;2022-12-29T05:00:29;95640.22;;;12.22;100.00
11198;BME280;5655;48.744;9.162;2022-12-29T05:02:54;95650.91;;;12.33;100.00
11198;BME280;5655;48.744;9.162;2022-12-29T05:05:19;95636.09;;;12.03;100.00
11198;BME280;5655;48.744;9.162;2022-12-29T05:07:45;95644.47;;;12.16;100.00
11198;BME280;5655;48.744;9.162;2022-12-29T05:10:11;95648.69;;;12.10;100.00
11198;BME280;5655;48.744;9.162;2022-12-29T05:12:37;95646.63;;;12.46;100.00
11198;BME280;5655;48.744;9.162;2022-12-29T05:15:05;95637.84;;;12.38;100.00
11198;BME280;5655;48.744;9.162;2022-12-29T05:17:30;95639.03;;;12.30;100.00
11198;BME280;5655;48.744;9.162;2022-12-29T05:19:56;95637.50;;;12.33;100.00
11198;BME280;5655;48.744;9.162;2022-12-29T05:22:21;95646.69;;;12.32;100.00
11198;BME280;5655;48.744;9.162;2022-12-29T05:24:47;95633.34;;;12.17;100.00
11198;BME280;5655;48.744;9.162;2022-12-29T05:27:12;95625.63;;;12.26;100.00
11198;BME280;5655;48.744;9.162;2022-12-29T05:29:38;95616.84;;;12.19;100.00
11198;BME280;5655;48.744;9.162;2022-12-29T05:32:03;95620.00;;;11.96;100.00
11198;BME280;5655;48.744;9.162;2022-12-29T05:34:29;95631.84;;;12.09;100.00
11198;BME280;5655;48.744;9.162;2022-12-29T05:36:54;95640.28;;;12.08;100.00
11198;BME280;5655;48.744;9.162;2022-12-29T05:39:19;95633.41;;;12.03;100.00
11198;BME280;5655;48.744;9.162;2022-12-29T05:41:44;95634.56;;;12.02;100.00
11198;BME280;5655;48.744;9.162;2022-12-29T05:44:10;95627.59;;;12.15;100.00
11198;BME280;5655;48.744;9.162;2022-12-29T05:46:36;95627.31;;;11.99;100.00
11198;BME280;5655;48.744;9.162;2022-12-29T05:49:01;95625.72;;;12.05;100.00
11198;BME280;5655;48.744;9.162;2022-12-29T05:51:26;95626.13;;;12.07;100.00
11198;BME280;5655;48.744;9.162;2022-12-29T05:53:52;95632.91;;;12.30;100.00
11198;BME280;5655;48.744;9.162;2022-12-29T05:56:17;95621.84;;;12.17;100.00
11198;BME280;5655;48.744;9.162;2022-12-29T05:58:42;95629.38;;;12.43;100.00
11198;BME280;5655;48.744;9.162;2022-12-29T06:01:08;95630.97;;;12.34;100.00
11198;BME280;5655;48.744;9.162;2022-12-29T06:03:33;95620.06;;;12.62;100.00
11198;BME280;5655;48.744;9.162;2022-12-29T06:05:58;95629.03;;;12.38;100.00
11198;BME280;5655;48.744;9.162;2022-12-29T06:08:24;95615.63;;;12.31;100.00
11198;BME280;5655;48.744;9.162;2022-12-29T06:10:50;95604.88;;;12.38;100.00
11198;BME280;5655;48.744;9.162;2022-12-29T06:13:15;95602.69;;;12.15;100.00
11198;BME280;5655;48.744;9.162;2022-12-29T06:15:40;95595.31;;;12.37;100.00
11198;BME280;5655;48.744;9.162;2022-12-29T06:18:06;95600.72;;;12.22;100.00
11198;BME280;5655;48.744;9.162;2022-12-29T06:20:31;95595.03;;;12.13;100.00
11198;BME280;5655;48.744;9.162;2022-12-29T06:22:56;95599.28;;;12.07;100.00
11198;BME280;5655;48.744;9.162;2022-12-29T06:25:22;95607.28;;;12.14;100.00
11198;BME280;5655;48.744;9.162;2022-12-29T06:27:47;95604.97;;;12.20;100.00
11198;BME280;5655;48.744;9.162;2022-12-29T06:30:13;95597.31;;;12.18;100.00
11198;BME280;5655;48.744;9.162;2022-12-29T06:32:39;95590.59;;;11.75;100.00
11198;BME280;5655;48.744;9.162;2022-12-29T06:35:05;95614.94;;;12.19;100.00
11198;BME280;5655;48.744;9.162;2022-12-29T06:37:31;95612.03;;;11.82;100.00
11198;BME280;5655;48.744;9.162;2022-12-29T06:39:57;95611.25;;;11.78;100.00
11198;BME280;5655;48.744;9.162;2022-12-29T06:42:23;95612.03;;;11.61;100.00
11198;BME280;5655;48.744;9.162;2022-12-29T06:44:48;95612.78;;;11.79;100.00
11198;BME280;5655;48.744;9.162;2022-12-29T06:47:13;95611.25;;;11.71;100.00
11198;BME280;5655;48.744;9.162;2022-12-29T06:49:39;95613.53;;;11.90;100.00
11198;BME280;5655;48.744;9.162;2022-12-29T06:52:04;95611.66;;;11.66;100.00
11198;BME280;5655;48.744;9.162;2022-12-29T06:54:30;95609.66;;;11.98;100.00
11198;BME280;5655;48.744;9.162;2022-12-29T06:56:56;95604.34;;;11.88;100.00
11198;BME280;5655;48.744;9.162;2022-12-29T06:59:21;95584.06;;;11.83;100.00
11198;BME280;5655;48.744;9.162;2022-12-29T07:01:47;95601.59;;;12.05;100.00
11198;BME280;5655;48.744;9.162;2022-12-29T07:04:12;95608.94;;;11.91;100.00
11198;BME280;5655;48.744;9.162;2022-12-29T07:06:37;95598.22;;;11.69;100.00
11198;BME280;5655;48.744;9.162;2022-12-29T07:09:03;95605.94;;;11.53;100.00
11198;BME280;5655;48.744;9.162;2022-12-29T07:11:29;95603.25;;;11.60;100.00
11198;BME280;5655;48.744;9.162;2022-12-29T07:13:54;95602.13;;;11.51;100.00
11198;BME280;5655;48.744;9.162;2022-12-29T07:16:20;95602.03;;;11.90;100.00
11198;BME280;5655;48.744;9.162;2022-12-29T07:18:45;95604.03;;;11.54;100.00
11198;BME280;5655;48.744;9.162;2022-12-29T07:21:11;95592.16;;;11.58;100.00
11198;BME280;5655;48.744;9.162;2022-12-29T07:23:36;95603.22;;;11.71;100.00
11198;BME280;5655;48.744;9.162;2022-12-29T07:26:06;95609.75;;;11.63;100.00
11198;BME280;5655;48.744;9.162;2022-12-29T07:28:34;95604.34;;;11.84;100.00
11198;BME280;5655;48.744;9.162;2022-12-29T07:31:00;95608.97;;;11.80;100.00
11198;BME280;5655;48.744;9.162;2022-12-29T07:33:28;95615.50;;;11.72;100.00
11198;BME280;5655;48.744;9.162;2022-12-29T07:35:54;95619.69;;;11.66;100.00
11198;BME280;5655;48.744;9.162;2022-12-29T07:38:19;95618.56;;;11.60;100.00
11198;BME280;5655;48.744;9.162;2022-12-29T07:40:45;95615.13;;;11.77;100.00
11198;BME280;5655;48.744;9.162;2022-12-29T07:43:10;95616.66;;;11.57;100.00
11198;BME280;5655;48.744;9.162;2022-12-29T07:45:35;95614.38;;;11.55;100.00
11198;BME280;5655;48.744;9.162;2022-12-29T07:48:01;95613.97;;;11.57;100.00
11198;BME280;5655;48.744;9.162;2022-12-29T07:50:27;95619.34;;;11.60;100.00
11198;BME280;5655;48.744;9.162;2022-12-29T07:52:53;95619.31;;;11.74;100.00
11198;BME280;5655;48.744;9.162;2022-12-29T07:55:18;95620.41;;;11.95;100.00
11198;BME280;5655;48.744;9.162;2022-12-29T07:57:43;95613.59;;;11.69;100.00
11198;BME280;5655;48.744;9.162;2022-12-29T08:00:09;95606.25;;;11.87;100.00
11198;BME280;5655;48.744;9.162;2022-12-29T08:02:35;95605.53;;;11.62;100.00
11198;BME280;5655;48.744;9.162;2022-12-29T08:05:01;95614.34;;;11.62;100.00
11198;BME280;5655;48.744;9.162;2022-12-29T08:07:26;95613.94;;;11.71;100.00
11198;BME280;5655;48.744;9.162;2022-12-29T08:09:51;95604.06;;;11.39;100.00
11198;BME280;5655;48.744;9.162;2022-12-29T08:12:17;95622.38;;;11.62;100.00
11198;BME280;5655;48.744;9.162;2022-12-29T08:14:43;95624.31;;;11.62;100.00
11198;BME280;5655;48.744;9.162;2022-12-29T08:17:08;95630.41;;;11.83;100.00
11198;BME280;5655;48.744;9.162;2022-12-29T08:19:33;95639.94;;;11.95;100.00
11198;BME280;5655;48.744;9.162;2022-12-29T08:21:58;95641.88;;;11.95;100.00
11198;BME280;5655;48.744;9.162;2022-12-29T08:24:24;95636.53;;;11.70;100.00
11198;BME280;5655;48.744;9.162;2022-12-29T08:26:49;95651.00;;;12.11;100.00
11198;BME280;5655;48.744;9.162;2022-12-29T08:29:14;95641.84;;;11.98;100.00
11198;BME280;5655;48.744;9.162;2022-12-29T08:31:40;95644.94;;;11.93;100.00
11198;BME280;5655;48.744;9.162;2022-12-29T08:34:05;95643.03;;;11.90;100.00
11198;BME280;5655;48.744;9.162;2022-12-29T08:36:30;95637.66;;;11.90;100.00
11198;BME280;5655;48.744;9.162;2022-12-29T08:38:56;95637.25;;;11.95;100.00
11198;BME280;5655;48.744;9.162;2022-12-29T08:41:22;95638.75;;;12.00;100.00
11198;BME280;5655;48.744;9.162;2022-12-29T08:43:48;95626.06;;;12.14;100.00
11198;BME280;5655;48.744;9.162;2022-12-29T08:46:15;95625.34;;;12.00;100.00
11198;BME280;5655;48.744;9.162;2022-12-29T08:48:40;95625.72;;;12.05;100.00
11198;BME280;5655;48.744;9.162;2022-12-29T08:51:06;95623.53;;;11.79;100.00
11198;BME280;5655;48.744;9.162;2022-12-29T08:53:33;95638.41;;;11.98;100.00
11198;BME280;5655;48.744;9.162;2022-12-29T08:55:59;95626.03;;;12.21;100.00
11198;BME280;5655;48.744;9.162;2022-12-29T08:58:25;95634.81;;;12.33;100.00
11198;BME280;5655;48.744;9.162;2022-12-29T09:00:55;95633.94;;;12.50;100.00
11198;BME280;5655;48.744;9.162;2022-12-29T09:03:21;95645.53;;;12.33;100.00
11198;BME280;5655;48.744;9.162;2022-12-29T09:05:50;95648.41;;;12.70;100.00
11198;BME280;5655;48.744;9.162;2022-12-29T09:08:16;95651.22;;;12.45;100.00
11198;BME280;5655;48.744;9.162;2022-12-29T09:10:42;95653.94;;;12.35;100.00
11198;BME280;5655;48.744;9.162;2022-12-29T09:13:08;95660.06;;;12.42;100.00
11198;BME280;5655;48.744;9.162;2022-12-29T09:15:33;95666.56;;;12.45;100.00
11198;BME280;5655;48.744;9.162;2022-12-29T09:17:58;95674.56;;;12.52;100.00
11198;BME280;5655;48.744;9.162;2022-12-29T09:20:23;95677.78;;;12.91;100.00
11198;BME280;5655;48.744;9.162;2022-12-29T09:22:49;95671.53;;;12.50;100.00
11198;BME280;5655;48.744;9.162;2022-12-29T09:25:15;95685.19;;;12.73;100.00
11198;BME280;5655;48.744;9.162;2022-12-29T09:27:40;95675.16;;;12.84;100.00
11198;BME280;5655;48.744;9.162;2022-12-29T09:30:08;95686.78;;;12.67;100.00
11198;BME280;5655;48.744;9.162;2022-12-29T09:32:34;95684.22;;;13.04;100.00
11198;BME280;5655;48.744;9.162;2022-12-29T09:35:00;95684.03;;;12.74;100.00
11198;BME280;5655;48.744;9.162;2022-12-29T09:37:25;95685.19;;;12.73;100.00
11198;BME280;5655;48.744;9.162;2022-12-29T09:39:51;95698.88;;;12.96;100.00
11198;BME280;5655;48.744;9.162;2022-12-29T09:42:25;95697.66;;;13.11;100.00
11198;BME280;5655;48.744;9.162;2022-12-29T09:45:01;95695.41;;;12.96;100.00
11198;BME280;5655;48.744;9.162;2022-12-29T09:47:29;95680.34;;;13.12;100.00
11198;BME280;5655;48.744;9.162;2022-12-29T09:49:58;95694.41;;;13.34;100.00
11198;BME280;5655;48.744;9.162;2022-12-29T09:52:31;95687.91;;;13.32;100.00
11198;BME280;5655;48.744;9.162;2022-12-29T09:55:00;95687.66;;;13.08;100.00
11198;BME280;5655;48.744;9.162;2022-12-29T10:00:13;95686.16;;;13.59;100.00
11198;BME280;5655;48.744;9.162;2022-12-29T10:02:59;95696.75;;;13.73;100.00
11198;BME280;5655;48.744;9.162;2022-12-29T10:13:36;95679.88;;;13.69;100.00
11198;BME280;5655;48.744;9.162;2022-12-29T10:16:33;95689.56;;;14.00;100.00
11198;BME280;5655;48.744;9.162;2022-12-29T10:19:17;95696.75;;;13.73;100.00
11198;BME280;5655;48.744;9.162;2022-12-29T10:24:24;95684.63;;;13.58;100.00
11198;BME280;5655;48.744;9.162;2022-12-29T10:26:51;95699.88;;;13.68;100.00
11198;BME280;5655;48.744;9.162;2022-12-29T10:29:23;95686.41;;;13.72;100.00
11198;BME280;5655;48.744;9.162;2022-12-29T10:34:45;95679.84;;;13.73;100.00
11198;BME280;5655;48.744;9.162;2022-12-29T10:41:00;95680.47;;;13.87;100.00
11198;BME280;5655;48.744;9.162;2022-12-29T10:42:59;95680.47;;;13.87;100.00
11198;BME280;5655;48.744;9.162;2022-12-29T10:45:29;95676.25;;;14.24;100.00
11198;BME280;5655;48.744;9.162;2022-12-29T10:50:27;95675.75;;;14.36;100.00
11198;BME280;5655;48.744;9.162;2022-12-29T10:52:56;95670.09;;;14.84;100.00
11198;BME280;5655;48.744;9.162;2022-12-29T10:55:27;95668.34;;;15.47;100.00
11198;BME280;5655;48.744;9.162;2022-12-29T10:57:54;95666.84;;;15.23;100.00
11198;BME280;5655;48.744;9.162;2022-12-29T11:00:22;95672.09;;;15.57;100.00
11198;BME280;5655;48.744;9.162;2022-12-29T11:06:05;95675.28;;;15.48;100.00
11198;BME280;5655;48.744;9.162;2022-12-29T11:08:38;95682.63;;;15.21;100.00
11198;BME280;5655;48.744;9.162;2022-12-29T11:11:08;95684.03;;;14.79;100.00
11198;BME280;5655;48.744;9.162;2022-12-29T11:13:47;95679.41;;;14.79;100.00
11198;BME280;5655;48.744;9.162;2022-12-29T11:16:12;95690.97;;;14.49;100.00
11198;BME280;5655;48.744;9.162;2022-12-29T11:18:39;95687.63;;;14.35;100.00
11198;BME280;5655;48.744;9.162;2022-12-29T11:21:31;95711.19;;;14.61;100.00
11198;BME280;5655;48.744;9.162;2022-12-29T11:24:00;95696.19;;;14.60;100.00
11198;BME280;5655;48.744;9.162;2022-12-29T11:26:27;95691.53;;;14.30;100.00
11198;BME280;5655;48.744;9.162;2022-12-29T11:31:51;95690.97;;;14.46;100.00
11198;BME280;5655;48.744;9.162;2022-12-29T11:34:22;95698.66;;;14.14;100.00
11198;BME280;5655;48.744;9.162;2022-12-29T11:36:50;95720.31;;;13.99;100.00
11198;BME280;5655;48.744;9.162;2022-12-29T11:41:53;95717.66;;;13.58;100.00
11198;BME280;5655;48.744;9.162;2022-12-29T11:44:19;95688.53;;;13.46;100.00
11198;BME280;5655;48.744;9.162;2022-12-29T11:46:46;95696.09;;;13.62;100.00
11198;BME280;5655;48.744;9.162;2022-12-29T11:49:20;95690.81;;;13.51;100.00
11198;BME280;5655;48.744;9.162;2022-12-29T11:51:48;95698.31;;;13.71;100.00
11198;BME280;5655;48.744;9.162;2022-12-29T11:54:23;95691.16;;;13.94;100.00
11198;BME280;5655;48.744;9.162;2022-12-29T11:56:50;95688.34;;;13.71;100.00
11198;BME280;5655;48.744;9.162;2022-12-29T12:02:01;95693.47;;;13.96;100.00
11198;BME280;5655;48.744;9.162;2022-12-29T12:04:35;95678.38;;;13.64;100.00
11198;BME280;5655;48.744;9.162;2022-12-29T12:09:37;95684.31;;;13.86;100.00
11198;BME280;5655;48.744;9.162;2022-12-29T12:12:15;95682.53;;;13.76;100.00
11198;BME280;5655;48.744;9.162;2022-12-29T12:14:53;95673.13;;;13.54;100.00
11198;BME280;5655;48.744;9.162;2022-12-29T12:17:57;95682.44;;;13.83;100.00
11198;BME280;5655;48.744;9.162;2022-12-29T12:23:26;95670.06;;;13.52;100.00
11198;BME280;5655;48.744;9.162;2022-12-29T12:26:16;95678.25;;;13.79;100.00
11198;BME280;5655;48.744;9.162;2022-12-29T12:28:53;95679.78;;;13.80;100.00
11198;BME280;5655;48.744;9.162;2022-12-29T12:34:03;95676.69;;;13.81;100.00
11198;BME280;5655;48.744;9.162;2022-12-29T12:48:06;95645.78;;;13.18;100.00
11198;BME280;5655;48.744;9.162;2022-12-29T12:53:21;95642.72;;;13.20;100.00
11198;BME280;5655;48.744;9.162;2022-12-29T12:56:19;95645.75;;;13.22;100.00
11198;BME280;5655;48.744;9.162;2022-12-29T13:06:58;95635.16;;;14.50;100.00
11198;BME280;5655;48.744;9.162;2022-12-29T13:12:15;95635.03;;;13.96;100.00
11198;BME280;5655;48.744;9.162;2022-12-29T13:17:32;95645.00;;;14.30;100.00
11198;BME280;5655;48.744;9.162;2022-12-29T13:20:28;95641.50;;;14.67;100.00
11198;BME280;5655;48.744;9.162;2022-12-29T13:36:24;95644.31;;;13.51;100.00
11198;BME280;5655;48.744;9.162;2022-12-29T13:39:01;95633.34;;;13.35;100.00
11198;BME280;5655;48.744;9.162;2022-12-29T13:41:39;95637.34;;;13.60;100.00
11198;BME280;5655;48.744;9.162;2022-12-29T13:44:11;95630.59;;;13.42;100.00
11198;BME280;5655;48.744;9.162;2022-12-29T13:46:43;95630.31;;;13.33;100.00
11198;BME280;5655;48.744;9.162;2022-12-29T13:49:21;95628.03;;;13.28;100.00
11198;BME280;5655;48.744;9.162;2022-12-29T13:51:53;95626.44;;;13.34;100.00
11198;BME280;5655;48.744;9.162;2022-12-29T13:54:34;95625.59;;;13.44;100.00
11198;BME280;5655;48.744;9.162;2022-12-29T13:57:10;95623.59;;;13.07;100.00
11198;BME280;5655;48.744;9.162;2022-12-29T13:59:51;95627.09;;;13.00;100.00
11198;BME280;5655;48.744;9.162;2022-12-29T14:02:21;95630.03;;;13.16;100.00
11198;BME280;5655;48.744;9.162;2022-12-29T14:05:00;95629.44;;;13.43;100.00
11198;BME280;5655;48.744;9.162;2022-12-29T14:07:27;95624.22;;;13.29;100.00
11198;BME280;5655;48.744;9.162;2022-12-29T14:09:55;95621.06;;;13.34;100.00
11198;BME280;5655;48.744;9.162;2022-12-29T14:14:52;95618.97;;;13.07;100.00
11198;BME280;5655;48.744;9.162;2022-12-29T14:17:20;95626.81;;;13.36;100.00
11198;BME280;5655;48.744;9.162;2022-12-29T14:19:46;95625.13;;;13.04;100.00
11198;BME280;5655;48.744;9.162;2022-12-29T14:22:12;95637.41;;;13.05;100.00
11198;BME280;5655;48.744;9.162;2022-12-29T14:24:44;95625.28;;;13.35;100.00
11198;BME280;5655;48.744;9.162;2022-12-29T14:34:59;95621.06;;;13.37;100.00
11198;BME280;5655;48.744;9.162;2022-12-29T14:37:33;95637.25;;;13.27;100.00
11198;BME280;5655;48.744;9.162;2022-12-29T14:40:19;95636.47;;;13.30;100.00
11198;BME280;5655;48.744;9.162;2022-12-29T14:42:49;95639.72;;;13.10;100.00
11198;BME280;5655;48.744;9.162;2022-12-29T14:47:46;95646.63;;;13.11;100.00
11198;BME280;5655;48.744;9.162;2022-12-29T14:53:05;95646.47;;;13.26;100.00
11198;BME280;5655;48.744;9.162;2022-12-29T14:56:13;95644.09;;;13.35;100.00
11198;BME280;5655;48.744;9.162;2022-12-29T14:58:39;95639.88;;;13.34;100.00
11198;BME280;5655;48.744;9.162;2022-12-29T15:01:34;95646.47;;;13.26;100.00
11198;BME280;5655;48.744;9.162;2022-12-29T15:04:17;95632.00;;;13.09;100.00
11198;BME280;5655;48.744;9.162;2022-12-29T15:06:44;95643.75;;;13.29;100.00
11198;BME280;5655;48.744;9.162;2022-12-29T15:12:01;95650.78;;;13.20;100.00
11198;BME280;5655;48.744;9.162;2022-12-29T15:14:37;95641.53;;;13.24;100.00
11198;BME280;5655;48.744;9.162;2022-12-29T15:17:24;95641.72;;;12.92;100.00
11198;BME280;5655;48.744;9.162;2022-12-29T15:19:49;95637.16;;;12.86;100.00